sensor_id;sensor_type;location;lat;lon;timestamp;P1;durP1;ratioP1;P2;durP2;ratioP2
8044;SDS011;4065;48.754;9.982;2023-06-14T00:02:50;5.93;;;5.32;;
8044;SDS011;4065;48.754;9.982;2023-06-14T00:06:13;5.78;;;4.82;;
8044;SDS011;4065;48.754;9.982;2023-06-14T00:09:35;6.07;;;5.13;;
8044;SDS011;4065;48.754;9.982;2023-06-14T00:12:57;5.80;;;5.10;;
8044;SDS011;4065;48.754;9.982;2023-06-14T00:16:20;5.50;;;4.97;;
8044;SDS011;4065;48.754;9.982;2023-06-14T00:19:42;7.68;;;5.07;;
8044;SDS011;4065;48.754;9.982;2023-06-14T00:23:05;5.20;;;4.65;;
8044;SDS011;4065;48.754;9.982;2023-06-14T00:26:27;8.60;;;5.00;;
8044;SDS011;4065;48.754;9.982;2023-06-14T00:29:49;6.30;;;4.90;;
8044;SDS011;4065;48.754;9.982;2023-06-14T00:33:14;6.90;;;5.18;;
8044;SDS011;4065;48.754;9.982;2023-06-14T00:36:36;5.80;;;5.30;;
8044;SDS011;4065;48.754;9.982;2023-06-14T00:39:59;6.57;;;4.95;;
8044;SDS011;4065;48.754;9.982;2023-06-14T00:43:20;6.80;;;5.50;;
8044;SDS011;4065;48.754;9.982;2023-06-14T00:46:42;6.00;;;5.40;;
8044;SDS011;4065;48.754;9.982;2023-06-14T00:50:06;6.65;;;5.22;;
8044;SDS011;4065;48.754;9.982;2023-06-14T00:53:29;5.97;;;5.20;;
8044;SDS011;4065;48.754;9.982;2023-06-14T00:56:53;6.65;;;5.25;;
8044;SDS011;4065;48.754;9.982;2023-06-14T01:00:15;5.45;;;4.82;;
8044;SDS011;4065;48.754;9.982;2023-06-14T01:03:37;6.78;;;5.40;;
8044;SDS011;4065;48.754;9.982;2023-06-14T01:07:01;8.88;;;5.22;;
8044;SDS011;4065;48.754;9.982;2023-06-14T01:10:32;8.43;;;5.28;;
8044;SDS011;4065;48.754;9.982;2023-06-14T01:13:59;7.38;;;5.30;;
8044;SDS011;4065;48.754;9.982;2023-06-14T01:17:21;5.43;;;4.85;;
8044;SDS011;4065;48.754;9.982;2023-06-14T01:20:44;6.85;;;4.95;;
8044;SDS011;4065;48.754;9.982;2023-06-14T01:24:11;5.53;;;4.93;;
8044;SDS011;4065;48.754;9.982;2023-06-14T01:27:33;6.47;;;5.38;;
8044;SDS011;4065;48.754;9.982;2023-06-14T01:30:58;6.13;;;5.53;;
8044;SDS011;4065;48.754;9.982;2023-06-14T01:34:24;6.55;;;5.45;;
8044;SDS011;4065;48.754;9.982;2023-06-14T01:37:46;5.30;;;4.80;;
8044;SDS011;4065;48.754;9.982;2023-06-14T01:41:10;6.90;;;5.43;;
8044;SDS011;4065;48.754;9.982;2023-06-14T01:44:33;5.80;;;5.20;;
8044;SDS011;4065;48.754;9.982;2023-06-14T01:47:54;6.10;;;5.28;;
8044;SDS011;4065;48.754;9.982;2023-06-14T01:51:16;5.82;;;5.22;;
8044;SDS011;4065;48.754;9.982;2023-06-14T01:54:38;5.53;;;5.00;;
8044;SDS011;4065;48.754;9.982;2023-06-14T01:58:04;6.07;;;5.20;;
8044;SDS011;4065;48.754;9.982;2023-06-14T02:01:26;6.10;;;5.43;;
8044;SDS011;4065;48.754;9.982;2023-06-14T02:04:48;8.07;;;5.25;;
8044;SDS011;4065;48.754;9.982;2023-06-14T02:08:10;5.78;;;5.03;;
8044;SDS011;4065;48.754;9.982;2023-06-14T02:11:32;7.20;;;5.18;;
8044;SDS011;4065;48.754;9.982;2023-06-14T02:14:55;6.05;;;5.43;;
8044;SDS011;4065;48.754;9.982;2023-06-14T02:18:17;7.43;;;5.18;;
8044;SDS011;4065;48.754;9.982;2023-06-14T02:21:39;6.70;;;5.10;;
8044;SDS011;4065;48.754;9.982;2023-06-14T02:25:01;7.18;;;4.88;;
8044;SDS011;4065;48.754;9.982;2023-06-14T02:28:23;7.65;;;5.00;;
8044;SDS011;4065;48.754;9.982;2023-06-14T02:31:46;5.80;;;5.10;;
8044;SDS011;4065;48.754;9.982;2023-06-14T02:35:10;5.60;;;4.88;;
8044;SDS011;4065;48.754;9.982;2023-06-14T02:38:31;7.05;;;5.70;;
8044;SDS011;4065;48.754;9.982;2023-06-14T02:41:53;6.20;;;5.07;;
8044;SDS011;4065;48.754;9.982;2023-06-14T02:45:15;5.63;;;4.93;;
8044;SDS011;4065;48.754;9.982;2023-06-14T02:48:39;6.55;;;4.85;;
8044;SDS011;4065;48.754;9.982;2023-06-14T02:52:01;5.80;;;5.18;;
8044;SDS011;4065;48.754;9.982;2023-06-14T02:55:23;8.05;;;5.10;;
8044;SDS011;4065;48.754;9.982;2023-06-14T02:58:45;6.78;;;5.72;;
8044;SDS011;4065;48.754;9.982;2023-06-14T03:02:09;6.47;;;5.30;;
8044;SDS011;4065;48.754;9.982;2023-06-14T03:05:32;6.32;;;5.35;;
8044;SDS011;4065;48.754;9.982;2023-06-14T03:08:54;5.90;;;4.93;;
8044;SDS011;4065;48.754;9.982;2023-06-14T03:12:20;6.72;;;4.82;;
8044;SDS011;4065;48.754;9.982;2023-06-14T03:15:45;5.90;;;5.30;;
8044;SDS011;4065;48.754;9.982;2023-06-14T03:19:08;6.10;;;5.30;;
8044;SDS011;4065;48.754;9.982;2023-06-14T03:22:31;6.57;;;5.38;;
8044;SDS011;4065;48.754;9.982;2023-06-14T03:25:55;6.10;;;5.50;;
8044;SDS011;4065;48.754;9.982;2023-06-14T03:29:17;5.53;;;5.03;;
8044;SDS011;4065;48.754;9.982;2023-06-14T03:32:40;6.28;;;5.22;;
8044;SDS011;4065;48.754;9.982;2023-06-14T03:36:02;6.53;;;5.82;;
8044;SDS011;4065;48.754;9.982;2023-06-14T03:39:26;6.57;;;5.50;;
8044;SDS011;4065;48.754;9.982;2023-06-14T03:42:50;9.10;;;5.65;;
8044;SDS011;4065;48.754;9.982;2023-06-14T03:46:12;10.00;;;5.88;;
8044;SDS011;4065;48.754;9.982;2023-06-14T03:49:35;6.10;;;5.45;;
8044;SDS011;4065;48.754;9.982;2023-06-14T03:52:57;7.90;;;5.90;;
8044;SDS011;4065;48.754;9.982;2023-06-14T03:56:23;6.88;;;5.47;;
8044;SDS011;4065;48.754;9.982;2023-06-14T03:59:47;7.50;;;5.70;;
8044;SDS011;4065;48.754;9.982;2023-06-14T04:03:09;7.00;;;5.20;;
8044;SDS011;4065;48.754;9.982;2023-06-14T04:06:30;12.63;;;6.03;;
8044;SDS011;4065;48.754;9.982;2023-06-14T04:09:55;11.13;;;5.53;;
8044;SDS011;4065;48.754;9.982;2023-06-14T04:13:18;14.27;;;5.65;;
8044;SDS011;4065;48.754;9.982;2023-06-14T04:16:40;11.05;;;6.13;;
8044;SDS011;4065;48.754;9.982;2023-06-14T04:20:02;15.88;;;5.80;;
8044;SDS011;4065;48.754;9.982;2023-06-14T04:23:25;12.68;;;5.47;;
8044;SDS011;4065;48.754;9.982;2023-06-14T04:26:48;14.27;;;5.90;;
8044;SDS011;4065;48.754;9.982;2023-06-14T04:30:13;15.32;;;6.00;;
8044;SDS011;4065;48.754;9.982;2023-06-14T04:33:37;24.98;;;7.35;;
8044;SDS011;4065;48.754;9.982;2023-06-14T04:37:03;14.15;;;6.25;;
8044;SDS011;4065;48.754;9.982;2023-06-14T04:40:29;15.23;;;5.85;;
8044;SDS011;4065;48.754;9.982;2023-06-14T04:43:51;14.43;;;6.03;;
8044;SDS011;4065;48.754;9.982;2023-06-14T04:47:16;17.65;;;5.80;;
8044;SDS011;4065;48.754;9.982;2023-06-14T04:50:39;16.48;;;5.95;;
8044;SDS011;4065;48.754;9.982;2023-06-14T04:54:07;15.15;;;6.00;;
8044;SDS011;4065;48.754;9.982;2023-06-14T04:57:39;12.07;;;6.03;;
8044;SDS011;4065;48.754;9.982;2023-06-14T05:01:01;16.17;;;5.38;;
8044;SDS011;4065;48.754;9.982;2023-06-14T05:04:24;8.88;;;5.30;;
8044;SDS011;4065;48.754;9.982;2023-06-14T05:07:47;9.85;;;4.88;;
8044;SDS011;4065;48.754;9.982;2023-06-14T05:11:11;14.02;;;5.80;;
8044;SDS011;4065;48.754;9.982;2023-06-14T05:14:33;13.13;;;5.22;;
8044;SDS011;4065;48.754;9.982;2023-06-14T05:17:55;17.30;;;5.30;;
8044;SDS011;4065;48.754;9.982;2023-06-14T05:21:20;11.68;;;4.95;;
8044;SDS011;4065;48.754;9.982;2023-06-14T05:24:42;14.20;;;5.70;;
8044;SDS011;4065;48.754;9.982;2023-06-14T05:28:04;10.45;;;5.32;;
8044;SDS011;4065;48.754;9.982;2023-06-14T05:31:28;14.27;;;5.55;;
8044;SDS011;4065;48.754;9.982;2023-06-14T05:34:50;9.00;;;5.25;;
8044;SDS011;4065;48.754;9.982;2023-06-14T05:38:13;10.10;;;5.35;;
8044;SDS011;4065;48.754;9.982;2023-06-14T05:41:35;9.77;;;5.45;;
8044;SDS011;4065;48.754;9.982;2023-06-14T05:44:56;10.73;;;5.05;;
8044;SDS011;4065;48.754;9.982;2023-06-14T05:48:18;11.73;;;5.65;;
8044;SDS011;4065;48.754;9.982;2023-06-14T05:51:40;8.23;;;5.38;;
8044;SDS011;4065;48.754;9.982;2023-06-14T05:55:07;7.53;;;4.93;;
8044;SDS011;4065;48.754;9.982;2023-06-14T05:58:34;6.78;;;4.70;;
8044;SDS011;4065;48.754;9.982;2023-06-14T06:01:55;10.77;;;5.47;;
8044;SDS011;4065;48.754;9.982;2023-06-14T06:05:17;9.15;;;4.80;;
8044;SDS011;4065;48.754;9.982;2023-06-14T06:08:39;6.85;;;4.70;;
8044;SDS011;4065;48.754;9.982;2023-06-14T06:12:04;8.23;;;4.47;;
8044;SDS011;4065;48.754;9.982;2023-06-14T06:15:31;6.30;;;4.80;;
8044;SDS011;4065;48.754;9.982;2023-06-14T06:18:53;7.93;;;4.78;;
8044;SDS011;4065;48.754;9.982;2023-06-14T06:22:15;7.57;;;4.90;;
8044;SDS011;4065;48.754;9.982;2023-06-14T06:25:37;6.32;;;5.63;;
8044;SDS011;4065;48.754;9.982;2023-06-14T06:29:05;8.13;;;5.22;;
8044;SDS011;4065;48.754;9.982;2023-06-14T06:32:30;6.72;;;4.47;;
8044;SDS011;4065;48.754;9.982;2023-06-14T06:35:52;5.70;;;4.70;;
8044;SDS011;4065;48.754;9.982;2023-06-14T06:39:14;6.90;;;4.70;;
8044;SDS011;4065;48.754;9.982;2023-06-14T06:42:36;6.60;;;5.05;;
8044;SDS011;4065;48.754;9.982;2023-06-14T06:45:59;5.88;;;4.78;;
8044;SDS011;4065;48.754;9.982;2023-06-14T06:49:23;5.80;;;4.47;;
8044;SDS011;4065;48.754;9.982;2023-06-14T06:52:47;5.40;;;4.57;;
8044;SDS011;4065;48.754;9.982;2023-06-14T06:56:09;6.00;;;4.45;;
8044;SDS011;4065;48.754;9.982;2023-06-14T06:59:31;8.98;;;4.70;;
8044;SDS011;4065;48.754;9.982;2023-06-14T07:02:54;5.78;;;4.70;;
8044;SDS011;4065;48.754;9.982;2023-06-14T07:06:17;5.65;;;4.53;;
8044;SDS011;4065;48.754;9.982;2023-06-14T07:09:39;4.90;;;4.40;;
8044;SDS011;4065;48.754;9.982;2023-06-14T07:13:03;6.60;;;4.63;;
8044;SDS011;4065;48.754;9.982;2023-06-14T07:16:25;10.35;;;4.47;;
8044;SDS011;4065;48.754;9.982;2023-06-14T07:19:49;6.90;;;4.93;;
8044;SDS011;4065;48.754;9.982;2023-06-14T07:23:11;4.75;;;4.18;;
8044;SDS011;4065;48.754;9.982;2023-06-14T07:26:33;5.90;;;4.50;;
8044;SDS011;4065;48.754;9.982;2023-06-14T07:30:02;6.97;;;4.95;;
8044;SDS011;4065;48.754;9.982;2023-06-14T07:33:25;7.40;;;4.80;;
8044;SDS011;4065;48.754;9.982;2023-06-14T07:36:48;5.28;;;4.20;;
8044;SDS011;4065;48.754;9.982;2023-06-14T07:40:13;4.90;;;4.45;;
8044;SDS011;4065;48.754;9.982;2023-06-14T07:43:35;10.20;;;4.63;;
8044;SDS011;4065;48.754;9.982;2023-06-14T07:46:57;8.63;;;4.97;;
8044;SDS011;4065;48.754;9.982;2023-06-14T07:50:20;9.68;;;4.78;;
8044;SDS011;4065;48.754;9.982;2023-06-14T07:53:43;12.90;;;5.20;;
8044;SDS011;4065;48.754;9.982;2023-06-14T07:57:05;7.63;;;4.90;;
8044;SDS011;4065;48.754;9.982;2023-06-14T08:00:28;7.18;;;4.80;;
8044;SDS011;4065;48.754;9.982;2023-06-14T08:03:51;8.27;;;5.28;;
8044;SDS011;4065;48.754;9.982;2023-06-14T08:07:13;6.55;;;5.25;;
8044;SDS011;4065;48.754;9.982;2023-06-14T08:10:36;8.82;;;5.50;;
8044;SDS011;4065;48.754;9.982;2023-06-14T08:13:58;8.57;;;5.95;;
8044;SDS011;4065;48.754;9.982;2023-06-14T08:17:20;8.38;;;5.10;;
8044;SDS011;4065;48.754;9.982;2023-06-14T08:20:42;10.70;;;6.15;;
8044;SDS011;4065;48.754;9.982;2023-06-14T08:24:04;8.82;;;6.00;;
8044;SDS011;4065;48.754;9.982;2023-06-14T08:27:28;6.88;;;5.53;;
8044;SDS011;4065;48.754;9.982;2023-06-14T08:30:51;7.80;;;6.00;;
8044;SDS011;4065;48.754;9.982;2023-06-14T08:34:14;6.90;;;4.75;;
8044;SDS011;4065;48.754;9.982;2023-06-14T08:37:37;10.95;;;5.75;;
8044;SDS011;4065;48.754;9.982;2023-06-14T08:41:00;9.57;;;5.70;;
8044;SDS011;4065;48.754;9.982;2023-06-14T08:44:24;5.85;;;5.35;;
8044;SDS011;4065;48.754;9.982;2023-06-14T08:47:49;6.60;;;5.20;;
8044;SDS011;4065;48.754;9.982;2023-06-14T08:51:12;6.45;;;5.25;;
8044;SDS011;4065;48.754;9.982;2023-06-14T08:54:36;5.50;;;4.93;;
8044;SDS011;4065;48.754;9.982;2023-06-14T08:58:04;6.78;;;5.43;;
8044;SDS011;4065;48.754;9.982;2023-06-14T09:01:27;6.30;;;5.15;;
8044;SDS011;4065;48.754;9.982;2023-06-14T09:04:51;9.07;;;5.35;;
8044;SDS011;4065;48.754;9.982;2023-06-14T09:08:14;7.85;;;5.68;;
8044;SDS011;4065;48.754;9.982;2023-06-14T09:11:36;7.78;;;4.65;;
8044;SDS011;4065;48.754;9.982;2023-06-14T09:14:58;6.30;;;5.22;;
8044;SDS011;4065;48.754;9.982;2023-06-14T09:18:21;7.20;;;5.68;;
8044;SDS011;4065;48.754;9.982;2023-06-14T09:21:47;5.95;;;4.88;;
8044;SDS011;4065;48.754;9.982;2023-06-14T09:25:09;8.05;;;5.47;;
8044;SDS011;4065;48.754;9.982;2023-06-14T09:28:32;7.75;;;5.30;;
8044;SDS011;4065;48.754;9.982;2023-06-14T09:31:54;6.97;;;5.47;;
8044;SDS011;4065;48.754;9.982;2023-06-14T09:35:18;7.75;;;5.15;;
8044;SDS011;4065;48.754;9.982;2023-06-14T09:38:40;10.95;;;5.43;;
8044;SDS011;4065;48.754;9.982;2023-06-14T09:42:02;6.10;;;4.88;;
8044;SDS011;4065;48.754;9.982;2023-06-14T09:45:39;6.55;;;5.18;;
8044;SDS011;4065;48.754;9.982;2023-06-14T09:49:02;5.82;;;4.75;;
8044;SDS011;4065;48.754;9.982;2023-06-14T09:52:26;5.95;;;4.93;;
8044;SDS011;4065;48.754;9.982;2023-06-14T09:55:49;8.57;;;5.07;;
8044;SDS011;4065;48.754;9.982;2023-06-14T09:59:12;6.45;;;5.18;;
8044;SDS011;4065;48.754;9.982;2023-06-14T10:02:35;5.57;;;4.82;;
8044;SDS011;4065;48.754;9.982;2023-06-14T10:05:59;5.30;;;4.80;;
8044;SDS011;4065;48.754;9.982;2023-06-14T10:09:28;6.47;;;4.88;;
8044;SDS011;4065;48.754;9.982;2023-06-14T10:12:51;7.20;;;4.90;;
8044;SDS011;4065;48.754;9.982;2023-06-14T10:16:15;6.57;;;5.00;;
8044;SDS011;4065;48.754;9.982;2023-06-14T10:19:40;8.10;;;5.43;;
8044;SDS011;4065;48.754;9.982;2023-06-14T10:23:06;6.25;;;4.93;;
8044;SDS011;4065;48.754;9.982;2023-06-14T10:26:33;8.25;;;4.90;;
8044;SDS011;4065;48.754;9.982;2023-06-14T10:30:05;6.40;;;4.30;;
8044;SDS011;4065;48.754;9.982;2023-06-14T10:33:29;6.43;;;4.78;;
8044;SDS011;4065;48.754;9.982;2023-06-14T10:37:00;7.72;;;5.15;;
8044;SDS011;4065;48.754;9.982;2023-06-14T10:40:29;5.35;;;4.40;;
8044;SDS011;4065;48.754;9.982;2023-06-14T10:47:51;5.40;;;4.88;;
8044;SDS011;4065;48.754;9.982;2023-06-14T10:51:15;6.03;;;4.68;;
8044;SDS011;4065;48.754;9.982;2023-06-14T10:54:51;7.50;;;5.00;;
8044;SDS011;4065;48.754;9.982;2023-06-14T10:58:32;7.78;;;4.82;;
8044;SDS011;4065;48.754;9.982;2023-06-14T11:01:56;6.97;;;4.70;;
8044;SDS011;4065;48.754;9.982;2023-06-14T11:05:23;8.70;;;4.80;;
8044;SDS011;4065;48.754;9.982;2023-06-14T11:08:52;6.13;;;4.72;;
8044;SDS011;4065;48.754;9.982;2023-06-14T11:12:24;6.75;;;5.00;;
8044;SDS011;4065;48.754;9.982;2023-06-14T11:15:47;6.60;;;4.85;;
8044;SDS011;4065;48.754;9.982;2023-06-14T11:19:13;5.78;;;4.55;;
8044;SDS011;4065;48.754;9.982;2023-06-14T11:22:42;5.55;;;4.95;;
8044;SDS011;4065;48.754;9.982;2023-06-14T11:26:04;7.13;;;4.60;;
8044;SDS011;4065;48.754;9.982;2023-06-14T11:29:26;7.85;;;4.50;;
8044;SDS011;4065;48.754;9.982;2023-06-14T11:32:51;5.90;;;4.80;;
8044;SDS011;4065;48.754;9.982;2023-06-14T11:36:15;5.05;;;4.53;;
8044;SDS011;4065;48.754;9.982;2023-06-14T11:39:44;6.57;;;5.13;;
8044;SDS011;4065;48.754;9.982;2023-06-14T11:43:06;6.43;;;4.72;;
8044;SDS011;4065;48.754;9.982;2023-06-14T11:46:28;6.57;;;4.72;;
8044;SDS011;4065;48.754;9.982;2023-06-14T11:49:50;9.68;;;4.85;;
8044;SDS011;4065;48.754;9.982;2023-06-14T11:53:16;5.22;;;4.35;;
8044;SDS011;4065;48.754;9.982;2023-06-14T11:56:40;4.38;;;3.97;;
8044;SDS011;4065;48.754;9.982;2023-06-14T12:00:03;5.00;;;4.50;;
8044;SDS011;4065;48.754;9.982;2023-06-14T12:03:28;7.40;;;4.80;;
8044;SDS011;4065;48.754;9.982;2023-06-14T12:06:50;7.13;;;4.53;;
8044;SDS011;4065;48.754;9.982;2023-06-14T12:10:13;8.48;;;4.60;;
8044;SDS011;4065;48.754;9.982;2023-06-14T12:13:39;9.00;;;5.15;;
8044;SDS011;4065;48.754;9.982;2023-06-14T12:17:04;7.43;;;4.38;;
8044;SDS011;4065;48.754;9.982;2023-06-14T12:20:29;6.00;;;4.65;;
8044;SDS011;4065;48.754;9.982;2023-06-14T12:23:51;5.35;;;4.68;;
8044;SDS011;4065;48.754;9.982;2023-06-14T12:27:13;6.40;;;4.70;;
8044;SDS011;4065;48.754;9.982;2023-06-14T12:30:37;6.15;;;4.88;;
8044;SDS011;4065;48.754;9.982;2023-06-14T12:33:59;9.10;;;4.75;;
8044;SDS011;4065;48.754;9.982;2023-06-14T12:37:22;7.63;;;4.65;;
8044;SDS011;4065;48.754;9.982;2023-06-14T12:40:44;5.28;;;4.75;;
8044;SDS011;4065;48.754;9.982;2023-06-14T12:44:05;5.05;;;4.55;;
8044;SDS011;4065;48.754;9.982;2023-06-14T12:47:30;6.18;;;4.07;;
8044;SDS011;4065;48.754;9.982;2023-06-14T12:50:54;7.28;;;4.68;;
8044;SDS011;4065;48.754;9.982;2023-06-14T12:54:16;6.70;;;4.10;;
8044;SDS011;4065;48.754;9.982;2023-06-14T12:57:38;7.80;;;4.53;;
8044;SDS011;4065;48.754;9.982;2023-06-14T13:01:00;7.00;;;4.45;;
8044;SDS011;4065;48.754;9.982;2023-06-14T13:04:23;7.68;;;4.20;;
8044;SDS011;4065;48.754;9.982;2023-06-14T13:07:45;7.63;;;4.10;;
8044;SDS011;4065;48.754;9.982;2023-06-14T13:11:07;5.93;;;4.30;;
8044;SDS011;4065;48.754;9.982;2023-06-14T13:14:29;4.97;;;4.05;;
8044;SDS011;4065;48.754;9.982;2023-06-14T13:17:51;6.28;;;4.30;;
8044;SDS011;4065;48.754;9.982;2023-06-14T13:21:14;5.40;;;4.07;;
8044;SDS011;4065;48.754;9.982;2023-06-14T13:24:36;5.18;;;4.40;;
8044;SDS011;4065;48.754;9.982;2023-06-14T13:27:58;7.05;;;4.47;;
8044;SDS011;4065;48.754;9.982;2023-06-14T13:31:20;6.80;;;4.38;;
8044;SDS011;4065;48.754;9.982;2023-06-14T13:34:42;6.20;;;4.05;;
8044;SDS011;4065;48.754;9.982;2023-06-14T13:38:05;5.15;;;4.60;;
8044;SDS011;4065;48.754;9.982;2023-06-14T13:41:30;6.88;;;4.43;;
8044;SDS011;4065;48.754;9.982;2023-06-14T13:44:54;5.38;;;4.32;;
8044;SDS011;4065;48.754;9.982;2023-06-14T13:48:16;6.50;;;4.40;;
8044;SDS011;4065;48.754;9.982;2023-06-14T13:51:38;7.60;;;4.38;;
8044;SDS011;4065;48.754;9.982;2023-06-14T13:55:05;7.60;;;4.80;;
8044;SDS011;4065;48.754;9.982;2023-06-14T13:58:28;5.38;;;4.63;;
8044;SDS011;4065;48.754;9.982;2023-06-14T14:01:50;6.45;;;4.22;;
8044;SDS011;4065;48.754;9.982;2023-06-14T14:05:12;6.07;;;4.45;;
8044;SDS011;4065;48.754;9.982;2023-06-14T14:08:37;4.50;;;3.95;;
8044;SDS011;4065;48.754;9.982;2023-06-14T14:12:01;4.25;;;3.85;;
8044;SDS011;4065;48.754;9.982;2023-06-14T14:15:23;5.05;;;3.83;;
8044;SDS011;4065;48.754;9.982;2023-06-14T14:18:45;5.80;;;4.00;;
8044;SDS011;4065;48.754;9.982;2023-06-14T14:22:07;6.13;;;4.10;;
8044;SDS011;4065;48.754;9.982;2023-06-14T14:25:29;5.93;;;4.13;;
8044;SDS011;4065;48.754;9.982;2023-06-14T14:28:53;6.07;;;3.88;;
8044;SDS011;4065;48.754;9.982;2023-06-14T14:32:15;6.15;;;3.90;;
8044;SDS011;4065;48.754;9.982;2023-06-14T14:35:37;4.95;;;4.03;;
8044;SDS011;4065;48.754;9.982;2023-06-14T14:39:00;5.03;;;4.10;;
8044;SDS011;4065;48.754;9.982;2023-06-14T14:42:23;5.60;;;4.15;;
8044;SDS011;4065;48.754;9.982;2023-06-14T14:45:48;7.03;;;4.68;;
8044;SDS011;4065;48.754;9.982;2023-06-14T14:49:10;7.20;;;4.18;;
8044;SDS011;4065;48.754;9.982;2023-06-14T14:52:32;5.30;;;4.25;;
8044;SDS011;4065;48.754;9.982;2023-06-14T14:55:54;4.80;;;3.88;;
8044;SDS011;4065;48.754;9.982;2023-06-14T14:59:16;6.88;;;4.05;;
8044;SDS011;4065;48.754;9.982;2023-06-14T15:02:43;6.13;;;3.70;;
8044;SDS011;4065;48.754;9.982;2023-06-14T15:06:05;5.72;;;4.22;;
8044;SDS011;4065;48.754;9.982;2023-06-14T15:09:27;4.35;;;3.88;;
8044;SDS011;4065;48.754;9.982;2023-06-14T15:12:49;8.82;;;4.75;;
8044;SDS011;4065;48.754;9.982;2023-06-14T15:16:11;5.35;;;4.40;;
8044;SDS011;4065;48.754;9.982;2023-06-14T15:19:34;7.97;;;4.50;;
8044;SDS011;4065;48.754;9.982;2023-06-14T15:22:57;4.45;;;4.05;;
8044;SDS011;4065;48.754;9.982;2023-06-14T15:26:22;8.75;;;4.20;;
8044;SDS011;4065;48.754;9.982;2023-06-14T15:29:44;5.82;;;4.25;;
8044;SDS011;4065;48.754;9.982;2023-06-14T15:33:09;5.38;;;4.28;;
8044;SDS011;4065;48.754;9.982;2023-06-14T15:36:36;5.43;;;4.10;;
8044;SDS011;4065;48.754;9.982;2023-06-14T15:39:58;6.88;;;4.53;;
8044;SDS011;4065;48.754;9.982;2023-06-14T15:43:20;4.75;;;3.80;;
8044;SDS011;4065;48.754;9.982;2023-06-14T15:46:43;4.90;;;4.00;;
8044;SDS011;4065;48.754;9.982;2023-06-14T15:50:06;5.82;;;4.18;;
8044;SDS011;4065;48.754;9.982;2023-06-14T15:53:30;5.43;;;4.15;;
8044;SDS011;4065;48.754;9.982;2023-06-14T15:56:54;7.53;;;4.45;;
8044;SDS011;4065;48.754;9.982;2023-06-14T16:00:17;5.38;;;4.25;;
8044;SDS011;4065;48.754;9.982;2023-06-14T16:03:43;4.65;;;3.90;;
8044;SDS011;4065;48.754;9.982;2023-06-14T16:07:05;5.28;;;4.55;;
8044;SDS011;4065;48.754;9.982;2023-06-14T16:10:30;5.38;;;4.28;;
8044;SDS011;4065;48.754;9.982;2023-06-14T16:13:52;5.78;;;4.03;;
8044;SDS011;4065;48.754;9.982;2023-06-14T16:17:16;4.95;;;4.30;;
8044;SDS011;4065;48.754;9.982;2023-06-14T16:20:38;4.97;;;4.18;;
8044;SDS011;4065;48.754;9.982;2023-06-14T16:24:00;4.38;;;3.95;;
8044;SDS011;4065;48.754;9.982;2023-06-14T16:27:27;6.28;;;4.00;;
8044;SDS011;4065;48.754;9.982;2023-06-14T16:30:49;7.50;;;4.88;;
8044;SDS011;4065;48.754;9.982;2023-06-14T16:34:13;8.60;;;3.97;;
8044;SDS011;4065;48.754;9.982;2023-06-14T16:37:40;7.35;;;3.90;;
8044;SDS011;4065;48.754;9.982;2023-06-14T16:41:02;5.45;;;3.50;;
8044;SDS011;4065;48.754;9.982;2023-06-14T16:44:25;6.22;;;3.85;;
8044;SDS011;4065;48.754;9.982;2023-06-14T16:47:53;7.20;;;3.92;;
8044;SDS011;4065;48.754;9.982;2023-06-14T16:51:15;5.57;;;4.22;;
8044;SDS011;4065;48.754;9.982;2023-06-14T16:54:37;5.55;;;4.00;;
8044;SDS011;4065;48.754;9.982;2023-06-14T16:58:00;12.18;;;4.40;;
8044;SDS011;4065;48.754;9.982;2023-06-14T17:01:23;5.38;;;4.15;;
8044;SDS011;4065;48.754;9.982;2023-06-14T17:04:49;7.40;;;5.72;;
8044;SDS011;4065;48.754;9.982;2023-06-14T17:08:13;6.32;;;4.25;;
8044;SDS011;4065;48.754;9.982;2023-06-14T17:11:35;4.35;;;3.95;;
8044;SDS011;4065;48.754;9.982;2023-06-14T17:14:57;5.55;;;3.95;;
8044;SDS011;4065;48.754;9.982;2023-06-14T17:18:20;4.82;;;4.07;;
8044;SDS011;4065;48.754;9.982;2023-06-14T17:21:44;6.07;;;4.32;;
8044;SDS011;4065;48.754;9.982;2023-06-14T17:25:10;5.47;;;4.32;;
8044;SDS011;4065;48.754;9.982;2023-06-14T17:28:33;7.68;;;4.25;;
8044;SDS011;4065;48.754;9.982;2023-06-14T17:31:57;6.95;;;4.82;;
8044;SDS011;4065;48.754;9.982;2023-06-14T17:35:21;6.53;;;4.43;;
8044;SDS011;4065;48.754;9.982;2023-06-14T17:38:43;4.63;;;4.22;;
8044;SDS011;4065;48.754;9.982;2023-06-14T17:42:05;5.35;;;4.22;;
8044;SDS011;4065;48.754;9.982;2023-06-14T17:45:27;4.63;;;3.97;;
8044;SDS011;4065;48.754;9.982;2023-06-14T17:48:49;4.55;;;4.15;;
8044;SDS011;4065;48.754;9.982;2023-06-14T17:52:15;7.00;;;4.57;;
8044;SDS011;4065;48.754;9.982;2023-06-14T17:55:37;4.78;;;4.28;;
8044;SDS011;4065;48.754;9.982;2023-06-14T17:58:59;6.05;;;4.40;;
8044;SDS011;4065;48.754;9.982;2023-06-14T18:02:21;6.95;;;4.20;;
8044;SDS011;4065;48.754;9.982;2023-06-14T18:05:43;7.22;;;4.25;;
8044;SDS011;4065;48.754;9.982;2023-06-14T18:09:06;7.10;;;4.57;;
8044;SDS011;4065;48.754;9.982;2023-06-14T18:12:31;5.72;;;4.72;;
8044;SDS011;4065;48.754;9.982;2023-06-14T18:15:58;9.75;;;4.55;;
8044;SDS011;4065;48.754;9.982;2023-06-14T18:19:20;6.13;;;4.15;;
8044;SDS011;4065;48.754;9.982;2023-06-14T18:22:47;4.72;;;4.18;;
8044;SDS011;4065;48.754;9.982;2023-06-14T18:26:10;5.78;;;4.57;;
8044;SDS011;4065;48.754;9.982;2023-06-14T18:29:34;5.82;;;4.28;;
8044;SDS011;4065;48.754;9.982;2023-06-14T18:32:57;11.65;;;4.30;;
8044;SDS011;4065;48.754;9.982;2023-06-14T18:36:19;8.00;;;4.45;;
8044;SDS011;4065;48.754;9.982;2023-06-14T18:39:44;8.32;;;4.47;;
8044;SDS011;4065;48.754;9.982;2023-06-14T18:43:07;5.93;;;4.60;;
8044;SDS011;4065;48.754;9.982;2023-06-14T18:46:31;6.00;;;4.47;;
8044;SDS011;4065;48.754;9.982;2023-06-14T18:49:53;5.07;;;4.45;;
8044;SDS011;4065;48.754;9.982;2023-06-14T18:53:18;4.97;;;4.30;;
8044;SDS011;4065;48.754;9.982;2023-06-14T18:56:43;5.18;;;4.55;;
8044;SDS011;4065;48.754;9.982;2023-06-14T19:00:08;6.03;;;4.40;;
8044;SDS011;4065;48.754;9.982;2023-06-14T19:03:30;8.13;;;4.60;;
8044;SDS011;4065;48.754;9.982;2023-06-14T19:06:55;5.65;;;4.55;;
8044;SDS011;4065;48.754;9.982;2023-06-14T19:10:19;6.20;;;4.53;;
8044;SDS011;4065;48.754;9.982;2023-06-14T19:13:42;5.10;;;4.60;;
8044;SDS011;4065;48.754;9.982;2023-06-14T19:17:05;4.85;;;4.32;;
8044;SDS011;4065;48.754;9.982;2023-06-14T19:20:28;7.10;;;4.38;;
8044;SDS011;4065;48.754;9.982;2023-06-14T19:23:50;5.60;;;4.47;;
8044;SDS011;4065;48.754;9.982;2023-06-14T19:27:14;6.43;;;4.85;;
8044;SDS011;4065;48.754;9.982;2023-06-14T19:30:36;5.28;;;4.60;;
8044;SDS011;4065;48.754;9.982;2023-06-14T19:33:59;5.18;;;4.55;;
8044;SDS011;4065;48.754;9.982;2023-06-14T19:37:21;5.82;;;4.90;;
8044;SDS011;4065;48.754;9.982;2023-06-14T19:40:43;5.57;;;4.40;;
8044;SDS011;4065;48.754;9.982;2023-06-14T19:44:05;5.45;;;4.55;;
8044;SDS011;4065;48.754;9.982;2023-06-14T19:47:30;5.13;;;4.63;;
8044;SDS011;4065;48.754;9.982;2023-06-14T19:50:53;5.80;;;4.80;;
8044;SDS011;4065;48.754;9.982;2023-06-14T19:54:15;5.57;;;4.70;;
8044;SDS011;4065;48.754;9.982;2023-06-14T19:57:37;8.38;;;5.07;;
8044;SDS011;4065;48.754;9.982;2023-06-14T20:00:58;5.47;;;4.97;;
8044;SDS011;4065;48.754;9.982;2023-06-14T20:04:20;5.68;;;4.90;;
8044;SDS011;4065;48.754;9.982;2023-06-14T20:07:44;6.07;;;4.88;;
8044;SDS011;4065;48.754;9.982;2023-06-14T20:11:05;6.53;;;4.60;;
8044;SDS011;4065;48.754;9.982;2023-06-14T20:14:27;6.47;;;5.22;;
8044;SDS011;4065;48.754;9.982;2023-06-14T20:17:49;5.22;;;4.80;;
8044;SDS011;4065;48.754;9.982;2023-06-14T20:21:11;7.82;;;4.63;;
8044;SDS011;4065;48.754;9.982;2023-06-14T20:24:36;8.10;;;4.65;;
8044;SDS011;4065;48.754;9.982;2023-06-14T20:27:58;6.03;;;5.43;;
8044;SDS011;4065;48.754;9.982;2023-06-14T20:31:21;5.45;;;4.85;;
8044;SDS011;4065;48.754;9.982;2023-06-14T20:34:43;6.25;;;5.20;;
8044;SDS011;4065;48.754;9.982;2023-06-14T20:38:05;6.47;;;5.50;;
8044;SDS011;4065;48.754;9.982;2023-06-14T20:41:28;7.03;;;5.20;;
8044;SDS011;4065;48.754;9.982;2023-06-14T20:44:51;5.38;;;4.60;;
8044;SDS011;4065;48.754;9.982;2023-06-14T20:48:13;5.22;;;4.72;;
8044;SDS011;4065;48.754;9.982;2023-06-14T20:51:35;9.40;;;5.13;;
8044;SDS011;4065;48.754;9.982;2023-06-14T20:54:57;6.43;;;4.35;;
8044;SDS011;4065;48.754;9.982;2023-06-14T20:58:20;5.28;;;4.43;;
8044;SDS011;4065;48.754;9.982;2023-06-14T21:01:43;5.25;;;4.70;;
8044;SDS011;4065;48.754;9.982;2023-06-14T21:05:05;6.90;;;5.05;;
8044;SDS011;4065;48.754;9.982;2023-06-14T21:08:28;6.20;;;5.20;;